Terminal Aerodrome Forecast
Issued by NWS Knoxville/Tri Cities, TN

Home | Current Version | Previous Version | Text Only | Print | Product List | Glossary On
Versions: 1 2 3 4 5 6 7 8 9 10 11 12 13 14 15 16 17 18 19 20 21 22 23 24 25 26 27 28 29 30 31 32 33 34 35 36 37 38 39 40 41 42 43 44 45 46 47 48 49 50
000
FTUS44 KMRX 010103 AAA
TAFCHA
TAF AMD
KCHA 010103Z 0101/0124 17006KT 5SM -SHRA BR SCT030 BKN050
      TEMPO 0101/0103 2SM SHRA BR BKN040
     FM010400 16010KT P6SM SCT050 BKN100
     FM010700 17015G24KT 5SM -TSRA BR SCT020 OVC040CB
     FM010900 20014G20KT 6SM -SHRA BR OVC030
     FM011400 22014G25KT P6SM SCT050=

USA.gov is the U.S. government's official web portal to all federal, state and local government web resources and services.